createdAt,value
2022-08-28T00:01:47.340Z,99.90
2022-08-28T00:04:14.314Z,99.90
2022-08-28T00:06:41.334Z,99.90
2022-08-28T00:09:08.461Z,99.90
2022-08-28T00:11:38.853Z,99.90
2022-08-28T00:14:07.942Z,99.90
2022-08-28T00:16:35.976Z,99.90
2022-08-28T00:19:03.795Z,99.90
2022-08-28T00:21:33.134Z,99.90
2022-08-28T00:24:01.033Z,99.90
2022-08-28T00:26:46.466Z,99.90
2022-08-28T00:29:13.533Z,99.90
2022-08-28T00:31:40.621Z,99.90
2022-08-28T00:34:09.158Z,99.90
2022-08-28T00:36:37.430Z,99.90
2022-08-28T00:39:06.472Z,99.90
2022-08-28T00:41:35.348Z,99.90
2022-08-28T00:44:13.717Z,99.90
2022-08-28T00:46:42.998Z,99.90
2022-08-28T00:49:11.046Z,99.90
2022-08-28T00:51:58.445Z,99.90
2022-08-28T00:54:28.267Z,99.90
2022-08-28T00:56:55.990Z,99.90
2022-08-28T00:59:25.256Z,99.90
2022-08-28T01:01:57.135Z,99.90
2022-08-28T01:04:27.226Z,99.90
2022-08-28T01:06:56.624Z,99.90
2022-08-28T01:09:26.865Z,99.90
2022-08-28T01:11:57.630Z,99.90
2022-08-28T01:14:26.678Z,99.90
2022-08-28T01:16:57.412Z,99.90
2022-08-28T01:19:35.265Z,99.90
2022-08-28T01:22:23.690Z,99.90
2022-08-28T01:24:54.103Z,99.90
2022-08-28T01:27:22.657Z,99.90
2022-08-28T01:29:52.059Z,99.90
2022-08-28T01:32:41.603Z,99.90
2022-08-28T01:35:11.936Z,99.90
2022-08-28T01:37:39.340Z,99.90
2022-08-28T01:40:07.878Z,99.90
2022-08-28T01:42:42.332Z,99.90
2022-08-28T01:45:15.552Z,99.90
2022-08-28T01:47:44.978Z,99.90
2022-08-28T01:50:15.066Z,99.90
2022-08-28T01:52:42.329Z,99.90
2022-08-28T01:55:11.834Z,99.90
2022-08-28T01:57:47.475Z,99.90
2022-08-28T02:00:16.469Z,99.90
2022-08-28T07:05:03.658Z,99.90
2022-08-28T07:07:31.437Z,99.90
2022-08-28T07:09:59.737Z,99.90
2022-08-28T07:12:26.897Z,99.90
2022-08-28T07:14:53.837Z,99.90
2022-08-28T07:17:20.715Z,99.90
2022-08-28T07:19:47.711Z,99.90
2022-08-28T07:22:14.579Z,99.90
2022-08-28T07:24:41.504Z,99.90
2022-08-28T07:27:09.160Z,99.90
2022-08-28T07:29:36.065Z,99.90
2022-08-28T07:32:04.060Z,99.90
2022-08-28T07:34:31.248Z,99.90
2022-08-28T07:37:03.866Z,99.90
2022-08-28T07:39:31.058Z,99.90
2022-08-28T07:41:58.099Z,99.90
2022-08-28T07:44:43.994Z,99.90
2022-08-28T07:47:11.978Z,99.90
2022-08-28T07:49:39.944Z,99.90
2022-08-28T07:52:08.749Z,99.90
2022-08-28T07:54:36.717Z,99.90
2022-08-28T07:57:05.596Z,99.90
2022-08-28T07:59:36.660Z,99.90
2022-08-28T08:02:05.381Z,99.90
2022-08-28T08:04:32.374Z,99.90
2022-08-28T08:06:59.438Z,99.90
2022-08-28T08:09:27.379Z,99.90
2022-08-28T08:11:56.678Z,99.90
2022-08-28T08:14:25.273Z,99.90
2022-08-28T08:16:53.545Z,99.90
2022-08-28T08:19:20.950Z,99.90
2022-08-28T08:21:53.101Z,99.90
2022-08-28T08:24:22.392Z,99.90
2022-08-28T08:27:00.067Z,99.90
2022-08-28T08:29:33.322Z,99.90
2022-08-28T08:32:06.472Z,99.90
2022-08-28T08:34:36.768Z,99.90
2022-08-28T08:37:05.600Z,99.90
2022-08-28T08:39:33.627Z,99.90
2022-08-28T08:42:02.938Z,99.90
2022-08-28T08:44:43.722Z,99.90
2022-08-28T08:50:20.775Z,99.90
2022-08-28T08:55:37.153Z,99.90
2022-08-28T08:58:12.971Z,99.90
2022-08-28T09:00:58.481Z,99.90
2022-08-28T09:04:22.802Z,99.90
2022-08-28T09:06:55.442Z,99.90
2022-08-28T09:09:41.112Z,99.90
2022-08-28T09:12:14.192Z,99.90
2022-08-28T09:14:54.130Z,99.90
2022-08-28T09:17:31.359Z,99.90
2022-08-28T09:19:59.169Z,99.90
2022-08-28T09:22:26.943Z,99.90
2022-08-28T09:24:54.321Z,99.90
2022-08-28T09:27:32.973Z,99.90
2022-08-28T09:30:08.157Z,99.90
2022-08-28T09:32:44.390Z,99.90
2022-08-28T09:35:34.479Z,99.90
2022-08-28T09:38:18.985Z,97.30
2022-08-28T09:41:06.546Z,99.10
2022-08-28T09:43:38.656Z,99.90
2022-08-28T09:46:24.985Z,99.90
2022-08-28T09:48:55.490Z,99.90
2022-08-28T09:51:22.497Z,99.10
2022-08-28T09:53:52.479Z,99.90
2022-08-28T09:56:25.725Z,99.90
2022-08-28T10:04:25.664Z,95.00
2022-08-28T10:07:02.452Z,96.00
2022-08-28T10:10:03.094Z,98.00
2022-08-28T10:12:48.550Z,97.20
2022-08-28T10:15:27.630Z,98.00
2022-08-28T10:18:06.824Z,98.30
2022-08-28T10:20:54.384Z,97.70
2022-08-28T10:23:38.083Z,97.10
2022-08-28T10:26:21.864Z,97.40
2022-08-28T10:29:02.641Z,94.90
2022-08-28T10:31:57.376Z,95.10
2022-08-28T10:34:49.282Z,94.60
2022-08-28T10:37:57.914Z,94.90
2022-08-28T10:40:36.296Z,93.90
2022-08-28T10:43:12.094Z,94.90
2022-08-28T10:45:41.402Z,95.00
2022-08-28T10:48:25.064Z,95.10
2022-08-28T10:51:03.426Z,94.00
2022-08-28T10:53:37.680Z,92.90
2022-08-28T10:56:14.693Z,94.40
2022-08-28T10:58:42.301Z,94.50
2022-08-28T11:01:14.979Z,93.60
2022-08-28T20:34:48.074Z,99.90
2022-08-28T20:37:16.738Z,99.90
2022-08-28T20:39:43.856Z,99.90
2022-08-28T20:42:11.885Z,99.90
2022-08-28T20:44:38.848Z,99.90
2022-08-28T20:47:06.210Z,99.90
2022-08-28T20:49:33.263Z,99.90
2022-08-28T20:52:06.936Z,99.90
2022-08-28T20:54:37.393Z,99.90
2022-08-28T20:57:10.702Z,99.90
2022-08-28T20:59:40.715Z,99.90
2022-08-28T21:02:14.489Z,99.90
2022-08-28T21:04:43.310Z,99.90
2022-08-28T21:07:10.727Z,99.90
2022-08-28T21:10:06.180Z,99.90
2022-08-28T21:12:25.684Z,99.90
2022-08-28T21:14:53.062Z,99.90
2022-08-28T21:17:28.927Z,99.90
2022-08-28T21:20:09.346Z,99.90
2022-08-28T21:22:37.709Z,99.90
2022-08-28T21:25:06.672Z,99.90
2022-08-28T21:27:33.924Z,99.90
2022-08-28T21:30:01.572Z,99.90
2022-08-28T21:32:30.248Z,99.90
2022-08-28T21:34:58.569Z,99.90
2022-08-28T21:37:25.504Z,99.90
2022-08-28T21:39:53.833Z,99.90
2022-08-28T21:42:23.626Z,99.90
2022-08-28T21:44:51.816Z,99.90
2022-08-28T21:47:21.551Z,99.90
2022-08-28T21:49:50.217Z,99.90
2022-08-28T21:52:18.650Z,99.90
2022-08-28T21:54:45.675Z,99.90
2022-08-28T21:57:12.633Z,99.90
2022-08-28T21:59:40.072Z,99.90
2022-08-28T22:02:07.406Z,99.90
2022-08-28T22:04:34.950Z,99.90
2022-08-28T22:07:02.153Z,99.90
2022-08-28T22:09:29.405Z,99.90
2022-08-28T22:11:56.365Z,99.90
2022-08-28T22:14:25.216Z,99.90
2022-08-28T22:16:52.344Z,99.90
2022-08-28T22:19:19.847Z,99.90
2022-08-28T22:22:05.589Z,99.90
2022-08-28T22:24:32.623Z,99.90
2022-08-28T22:27:00.193Z,99.90
2022-08-28T22:29:27.105Z,99.90
2022-08-28T22:31:54.072Z,99.90
2022-08-28T23:33:37.855Z,99.90
2022-08-28T23:36:05.373Z,99.90
2022-08-28T23:38:32.338Z,99.90
2022-08-28T23:40:59.313Z,99.90
2022-08-28T23:43:26.339Z,99.90
2022-08-28T23:45:53.340Z,99.90
2022-08-28T23:48:20.928Z,99.90
2022-08-28T23:50:48.585Z,99.90
2022-08-28T23:53:18.703Z,99.90
2022-08-28T23:55:45.924Z,99.90
2022-08-28T23:58:15.986Z,99.90
